createdAt,value
2019-04-30T00:00:15.797Z,9.00
2019-04-30T00:02:47.961Z,9.00
2019-04-30T00:05:18.727Z,9.00
2019-04-30T00:07:46.314Z,9.00
2019-04-30T00:10:15.460Z,9.10
2019-04-30T00:12:45.276Z,9.10
2019-04-30T00:15:16.201Z,9.10
2019-04-30T00:17:45.622Z,9.10
2019-04-30T00:20:15.098Z,9.10
2019-04-30T00:22:47.023Z,9.10
2019-04-30T00:25:15.214Z,9.10
2019-04-30T00:27:45.889Z,9.10
2019-04-30T00:30:15.343Z,9.00
2019-04-30T00:32:45.592Z,9.00
2019-04-30T00:35:16.155Z,9.10
2019-04-30T00:37:44.927Z,9.00
2019-04-30T00:40:15.284Z,9.10
2019-04-30T00:42:45.622Z,9.10
2019-04-30T00:45:15.338Z,9.10
2019-04-30T00:47:47.577Z,9.10
2019-04-30T00:50:14.973Z,9.00
2019-04-30T00:52:43.361Z,9.00
2019-04-30T00:55:11.653Z,9.00
2019-04-30T00:57:43.637Z,9.00
2019-04-30T01:00:10.750Z,9.00
2019-04-30T01:02:40.664Z,9.00
2019-04-30T01:05:10.606Z,9.00
2019-04-30T01:07:39.568Z,9.00
2019-04-30T01:10:10.494Z,8.90
2019-04-30T01:12:44.932Z,8.90
2019-04-30T01:15:11.124Z,8.90
2019-04-30T01:17:40.875Z,8.90
2019-04-30T01:20:09.416Z,8.90
2019-04-30T01:22:38.841Z,8.90
2019-04-30T01:25:12.112Z,8.90
2019-04-30T01:27:39.464Z,9.00
2019-04-30T01:30:08.717Z,8.90
2019-04-30T01:32:37.166Z,8.90
2019-04-30T01:35:08.888Z,8.90
2019-04-30T01:37:38.675Z,8.90
2019-04-30T01:40:13.414Z,8.90
2019-04-30T01:42:43.113Z,8.90
2019-04-30T01:45:08.747Z,8.90
2019-04-30T01:47:37.080Z,8.90
2019-04-30T01:50:06.244Z,8.90
2019-04-30T01:52:52.365Z,8.90
2019-04-30T01:55:23.260Z,8.90
2019-04-30T01:57:53.175Z,8.90
2019-04-30T02:00:32.034Z,8.90
2019-04-30T02:03:00.314Z,8.90
2019-04-30T02:05:28.828Z,8.90
2019-04-30T02:07:58.532Z,8.90
2019-04-30T02:10:28.484Z,8.80
2019-04-30T02:12:58.911Z,8.80
2019-04-30T02:15:26.886Z,8.80
2019-04-30T02:17:55.175Z,8.90
2019-04-30T02:20:23.424Z,8.90
2019-04-30T02:22:51.711Z,8.90
2019-04-30T02:25:19.966Z,8.90
2019-04-30T02:27:48.938Z,8.90
2019-04-30T02:30:20.526Z,8.90
2019-04-30T02:32:49.570Z,8.90
2019-04-30T02:35:35.016Z,8.90
2019-04-30T02:38:10.659Z,8.90
2019-04-30T02:40:39.264Z,8.80
2019-04-30T02:43:09.364Z,8.70
2019-04-30T02:45:40.011Z,8.70
2019-04-30T02:48:11.484Z,8.60
2019-04-30T02:50:39.322Z,8.60
2019-04-30T02:53:29.249Z,8.70
2019-04-30T02:55:59.511Z,8.70
2019-04-30T02:58:29.386Z,8.70
2019-04-30T03:01:00.071Z,8.70
2019-04-30T03:03:29.818Z,8.70
2019-04-30T03:05:59.600Z,8.70
2019-04-30T03:08:29.764Z,8.70
2019-04-30T03:10:59.919Z,8.60
2019-04-30T03:13:29.925Z,8.60
2019-04-30T03:15:59.282Z,8.50
2019-04-30T03:18:35.151Z,8.40
2019-04-30T03:21:09.771Z,8.20
2019-04-30T03:23:39.176Z,8.10
2019-04-30T03:26:09.691Z,8.10
2019-04-30T03:28:39.679Z,8.00
2019-04-30T03:31:11.908Z,8.10
2019-04-30T03:33:41.910Z,8.10
2019-04-30T03:36:11.879Z,8.10
2019-04-30T03:38:39.631Z,8.00
2019-04-30T03:41:09.707Z,7.90
2019-04-30T03:43:39.883Z,7.90
2019-04-30T03:46:10.156Z,7.80
2019-04-30T03:48:39.589Z,7.80
2019-04-30T03:51:10.363Z,7.70
2019-04-30T03:53:42.385Z,7.60
2019-04-30T03:56:09.487Z,7.50
2019-04-30T03:58:39.588Z,7.40
2019-04-30T04:01:19.643Z,7.30
2019-04-30T04:04:04.496Z,7.20
2019-04-30T04:06:40.340Z,7.10
2019-04-30T04:09:10.445Z,7.00
2019-04-30T04:11:40.671Z,7.00
2019-04-30T04:14:09.361Z,6.90
2019-04-30T04:16:40.566Z,6.90
2019-04-30T04:19:09.660Z,6.90
2019-04-30T04:21:39.325Z,7.00
2019-04-30T04:24:10.436Z,7.10
2019-04-30T04:26:37.677Z,7.20
2019-04-30T04:29:06.019Z,7.20
2019-04-30T04:31:34.330Z,7.30
2019-04-30T04:34:02.575Z,7.30
2019-04-30T04:36:30.876Z,7.30
2019-04-30T04:39:00.115Z,7.30
2019-04-30T04:41:29.566Z,7.30
2019-04-30T04:44:00.202Z,7.30
2019-04-30T04:46:30.601Z,7.30
2019-04-30T04:48:59.651Z,7.30
2019-04-30T04:51:37.936Z,7.30
2019-04-30T04:54:00.257Z,7.40
2019-04-30T04:56:30.378Z,7.60
2019-04-30T04:59:00.218Z,7.70
2019-04-30T05:01:28.935Z,7.80
2019-04-30T05:03:59.053Z,7.90
2019-04-30T05:06:29.643Z,8.00
2019-04-30T05:08:59.201Z,8.00
2019-04-30T05:11:29.386Z,8.10
2019-04-30T05:13:58.895Z,8.10
2019-04-30T05:16:28.907Z,8.20
2019-04-30T05:18:58.613Z,8.30
2019-04-30T05:21:39.654Z,8.30
2019-04-30T05:23:59.029Z,8.30
2019-04-30T05:26:28.731Z,8.40
2019-04-30T05:28:57.123Z,8.40
2019-04-30T05:31:25.386Z,8.40
2019-04-30T05:33:53.751Z,8.40
2019-04-30T05:36:22.003Z,8.40
2019-04-30T05:38:50.274Z,8.40
2019-04-30T05:41:19.304Z,8.40
2019-04-30T05:43:48.814Z,8.40
2019-04-30T05:46:17.345Z,8.40
2019-04-30T05:48:45.645Z,8.40
2019-04-30T05:51:13.908Z,8.40
2019-04-30T05:53:42.243Z,8.50
2019-04-30T05:56:10.536Z,8.60
2019-04-30T05:58:39.690Z,8.60
2019-04-30T06:01:09.689Z,8.60
2019-04-30T06:03:38.568Z,8.60
2019-04-30T06:06:08.829Z,8.70
2019-04-30T06:08:39.259Z,8.80
2019-04-30T06:11:09.446Z,8.90
2019-04-30T06:13:49.156Z,9.00
2019-04-30T06:16:19.148Z,9.10
2019-04-30T06:18:48.530Z,9.10
2019-04-30T06:21:16.955Z,9.10
2019-04-30T06:23:45.235Z,9.00
2019-04-30T06:26:13.517Z,9.00
2019-04-30T06:28:41.788Z,9.10
2019-04-30T06:31:10.073Z,9.20
2019-04-30T06:33:38.850Z,9.20
2019-04-30T06:36:08.553Z,9.30
2019-04-30T06:38:38.680Z,9.40
2019-04-30T06:41:08.607Z,9.40
2019-04-30T06:43:38.580Z,9.50
2019-04-30T06:46:08.752Z,9.60
2019-04-30T06:48:37.138Z,9.60
2019-04-30T06:51:05.411Z,9.60
2019-04-30T06:53:33.664Z,9.70
2019-04-30T06:56:01.981Z,9.70
2019-04-30T06:58:30.244Z,9.90
2019-04-30T07:00:59.594Z,9.90
2019-04-30T07:03:29.058Z,10.00
2019-04-30T07:05:58.625Z,10.10
2019-04-30T07:08:54.682Z,10.10
2019-04-30T07:11:24.140Z,10.30
2019-04-30T07:13:52.616Z,10.20
2019-04-30T07:16:20.965Z,10.30
2019-04-30T07:18:49.278Z,10.30
2019-04-30T07:21:19.829Z,10.30
2019-04-30T07:23:48.531Z,10.50
2019-04-30T07:26:19.675Z,10.60
2019-04-30T07:28:52.779Z,10.80
2019-04-30T07:31:19.002Z,11.00
2019-04-30T07:33:51.477Z,11.20
2019-04-30T07:36:19.368Z,11.40
2019-04-30T07:38:53.710Z,11.40
2019-04-30T07:41:18.877Z,11.40
2019-04-30T07:43:49.396Z,11.50
2019-04-30T07:46:16.993Z,11.50
2019-04-30T07:48:45.279Z,11.30
2019-04-30T07:51:14.061Z,11.10
2019-04-30T07:53:42.714Z,11.00
2019-04-30T07:56:24.104Z,10.90
2019-04-30T07:58:40.999Z,10.80
2019-04-30T08:01:10.270Z,10.80
2019-04-30T08:03:40.754Z,10.80
2019-04-30T08:06:10.299Z,10.90
2019-04-30T08:08:40.831Z,11.00
2019-04-30T08:11:09.265Z,11.00
2019-04-30T08:13:40.720Z,11.20
2019-04-30T08:16:09.755Z,11.20
2019-04-30T08:18:39.220Z,11.60
2019-04-30T08:21:09.507Z,11.60
2019-04-30T08:23:39.531Z,11.60
2019-04-30T08:26:08.822Z,11.60
2019-04-30T08:28:38.703Z,11.70
2019-04-30T08:31:08.833Z,11.70
2019-04-30T08:33:37.068Z,11.70
2019-04-30T08:36:05.346Z,11.60
2019-04-30T08:38:33.635Z,11.70
2019-04-30T08:41:01.921Z,11.80
2019-04-30T08:43:30.225Z,12.00
2019-04-30T08:45:59.498Z,11.90
2019-04-30T08:48:43.759Z,11.90
2019-04-30T08:50:59.296Z,12.00
2019-04-30T08:53:32.940Z,12.10
2019-04-30T08:55:59.122Z,12.60
2019-04-30T08:58:29.173Z,12.70
2019-04-30T09:00:58.777Z,12.80
2019-04-30T09:03:27.159Z,12.80
2019-04-30T09:05:59.795Z,12.70
2019-04-30T09:08:29.469Z,12.70
2019-04-30T09:10:59.532Z,13.20
2019-04-30T09:13:28.653Z,13.30
2019-04-30T09:15:59.178Z,13.40
2019-04-30T09:18:29.038Z,13.60
2019-04-30T09:21:04.156Z,13.70
2019-04-30T09:23:34.329Z,13.80
2019-04-30T09:25:58.599Z,13.90
2019-04-30T09:28:27.037Z,14.00
2019-04-30T09:30:55.381Z,14.20
2019-04-30T09:33:23.635Z,14.50
2019-04-30T09:35:51.939Z,14.90
2019-04-30T09:38:20.207Z,14.90
2019-04-30T09:40:50.563Z,15.00
2019-04-30T09:43:18.837Z,15.20
2019-04-30T09:45:47.289Z,15.10
2019-04-30T09:48:15.552Z,15.40
2019-04-30T09:50:43.944Z,15.70
2019-04-30T09:53:12.722Z,15.90
2019-04-30T09:55:41.290Z,16.30
2019-04-30T09:58:17.188Z,16.50
2019-04-30T10:00:39.968Z,16.70
2019-04-30T10:03:10.394Z,17.00
2019-04-30T10:05:39.112Z,17.30
2019-04-30T10:08:07.406Z,17.90
2019-04-30T10:10:38.759Z,17.90
2019-04-30T10:13:07.103Z,18.10
2019-04-30T10:15:45.924Z,18.00
2019-04-30T10:18:14.223Z,18.10
2019-04-30T10:20:43.572Z,18.20
2019-04-30T10:23:11.845Z,18.50
2019-04-30T10:25:40.179Z,18.70
2019-04-30T10:28:09.984Z,18.80
2019-04-30T10:30:38.510Z,19.10
2019-04-30T10:33:06.880Z,19.30
2019-04-30T10:35:35.214Z,19.20
2019-04-30T10:38:03.532Z,19.40
2019-04-30T10:40:31.819Z,19.50
2019-04-30T10:43:00.181Z,19.80
2019-04-30T10:45:28.842Z,20.20
2019-04-30T10:47:59.135Z,20.20
2019-04-30T10:50:27.210Z,20.60
2019-04-30T10:52:55.553Z,20.90
2019-04-30T10:55:23.816Z,21.20
2019-04-30T10:57:52.108Z,21.30
2019-04-30T11:00:23.645Z,21.10
2019-04-30T11:02:51.973Z,20.80
2019-04-30T11:05:21.127Z,21.00
2019-04-30T11:07:49.614Z,21.20
2019-04-30T11:10:18.907Z,21.40
2019-04-30T11:12:47.339Z,21.70
2019-04-30T11:15:15.592Z,21.50
2019-04-30T11:17:44.021Z,21.60
2019-04-30T11:20:12.599Z,21.80
2019-04-30T11:22:41.343Z,21.50
2019-04-30T11:25:10.302Z,21.60
2019-04-30T11:27:40.706Z,22.10
2019-04-30T11:30:20.380Z,22.30
2019-04-30T11:32:39.123Z,21.90
2019-04-30T11:35:07.614Z,22.60
2019-04-30T11:37:35.889Z,22.70
2019-04-30T11:40:06.739Z,22.50
2019-04-30T11:42:35.090Z,23.00
2019-04-30T11:45:08.571Z,22.70
2019-04-30T11:47:38.188Z,22.70
2019-04-30T11:50:11.183Z,23.20
2019-04-30T11:52:39.448Z,23.40
2019-04-30T11:55:09.680Z,23.90
2019-04-30T11:57:39.770Z,23.70
2019-04-30T12:00:11.081Z,23.70
2019-04-30T12:02:41.016Z,23.90
2019-04-30T12:05:09.339Z,24.10
2019-04-30T12:07:41.976Z,23.80
2019-04-30T12:10:23.649Z,23.60
2019-04-30T12:12:51.998Z,23.80
2019-04-30T12:15:20.420Z,24.20
2019-04-30T12:17:48.782Z,24.40
2019-04-30T12:20:17.095Z,24.10
2019-04-30T12:22:45.379Z,24.60
2019-04-30T12:25:13.677Z,24.70
2019-04-30T12:27:41.945Z,24.50
2019-04-30T12:30:10.329Z,25.10
2019-04-30T12:32:39.301Z,24.90
2019-04-30T12:35:07.608Z,24.80
2019-04-30T12:37:35.899Z,24.90
2019-04-30T12:40:09.442Z,25.50
2019-04-30T12:42:38.455Z,25.30
2019-04-30T12:45:09.467Z,25.70
2019-04-30T12:47:47.979Z,26.20
2019-04-30T12:50:20.643Z,26.40
2019-04-30T12:52:56.328Z,26.20
2019-04-30T12:55:42.332Z,26.30
2019-04-30T12:58:10.613Z,26.30
2019-04-30T13:00:39.215Z,26.60
2019-04-30T13:03:07.542Z,26.90
2019-04-30T13:05:35.825Z,27.10
2019-04-30T13:08:04.824Z,27.20
2019-04-30T13:10:33.892Z,27.60
2019-04-30T13:13:02.974Z,27.50
2019-04-30T13:15:31.399Z,27.70
2019-04-30T13:17:59.707Z,27.80
2019-04-30T13:20:29.362Z,27.90
2019-04-30T13:22:58.889Z,27.70
2019-04-30T13:25:34.802Z,27.60
2019-04-30T13:27:58.943Z,27.80
2019-04-30T13:30:29.886Z,27.80
2019-04-30T13:33:05.834Z,26.80
2019-04-30T13:35:34.539Z,26.10
2019-04-30T13:38:04.568Z,26.20
2019-04-30T13:40:40.508Z,26.70
2019-04-30T13:43:10.697Z,26.70
2019-04-30T13:45:38.989Z,27.20
2019-04-30T13:48:08.968Z,27.00
2019-04-30T13:50:39.048Z,27.70
2019-04-30T13:53:08.870Z,27.40
2019-04-30T13:55:45.015Z,26.60
2019-04-30T13:58:07.287Z,26.90
2019-04-30T14:00:35.694Z,26.80
2019-04-30T14:03:11.629Z,27.40
2019-04-30T14:05:39.942Z,27.80
2019-04-30T14:08:12.560Z,28.10
2019-04-30T14:10:42.464Z,28.10
2019-04-30T14:13:10.764Z,27.60
2019-04-30T14:15:39.050Z,27.50
2019-04-30T14:18:09.239Z,26.30
2019-04-30T14:20:37.366Z,26.00
2019-04-30T14:23:05.674Z,26.10
2019-04-30T14:25:34.022Z,26.40
2019-04-30T14:28:02.306Z,26.70
2019-04-30T14:30:30.667Z,27.60
2019-04-30T14:32:59.321Z,28.40
2019-04-30T14:35:28.663Z,28.20
2019-04-30T14:37:57.064Z,28.70
2019-04-30T14:40:26.005Z,27.90
2019-04-30T14:42:59.609Z,28.50
2019-04-30T14:45:45.076Z,28.80
2019-04-30T14:48:23.771Z,28.60
2019-04-30T14:50:51.238Z,27.90
2019-04-30T14:53:23.732Z,28.30
2019-04-30T14:55:53.655Z,28.60
2019-04-30T14:58:26.520Z,28.40
2019-04-30T15:00:56.454Z,28.60
2019-04-30T15:03:35.202Z,29.00
2019-04-30T15:06:03.590Z,29.00
2019-04-30T15:08:31.907Z,29.20
2019-04-30T15:11:00.193Z,29.60
2019-04-30T15:13:29.505Z,29.60
2019-04-30T15:15:57.920Z,29.80
2019-04-30T15:18:26.194Z,29.90
2019-04-30T15:20:54.491Z,29.20
2019-04-30T15:23:26.828Z,28.60
2019-04-30T15:25:55.126Z,28.60
2019-04-30T15:28:23.424Z,28.40
2019-04-30T15:30:52.178Z,28.10
2019-04-30T15:33:34.189Z,28.30
2019-04-30T15:36:03.314Z,28.50
2019-04-30T15:38:48.914Z,28.50
2019-04-30T15:41:17.782Z,28.60
2019-04-30T15:43:46.396Z,28.40
2019-04-30T15:46:14.764Z,27.80
2019-04-30T15:48:43.036Z,26.50
2019-04-30T15:51:11.548Z,25.10
2019-04-30T15:53:39.843Z,25.00
2019-04-30T15:56:08.570Z,25.00
2019-04-30T15:58:41.492Z,24.80
2019-04-30T16:01:11.454Z,24.50
2019-04-30T16:03:41.404Z,24.20
2019-04-30T16:06:10.456Z,23.50
2019-04-30T16:08:43.432Z,22.90
2019-04-30T16:11:25.393Z,22.10
2019-04-30T16:14:13.156Z,22.00
2019-04-30T16:16:43.097Z,21.90
2019-04-30T16:19:11.465Z,21.60
2019-04-30T16:21:39.747Z,21.40
2019-04-30T16:24:08.709Z,21.60
2019-04-30T16:26:48.627Z,22.20
2019-04-30T16:29:07.029Z,22.20
2019-04-30T16:31:35.301Z,21.80
2019-04-30T16:34:03.607Z,21.50
2019-04-30T16:36:31.903Z,21.20
2019-04-30T16:39:00.235Z,20.80
2019-04-30T16:41:31.827Z,20.50
2019-04-30T16:43:59.367Z,20.20
2019-04-30T16:46:29.521Z,19.90
2019-04-30T16:48:58.732Z,19.80
2019-04-30T16:51:28.884Z,19.70
2019-04-30T16:53:58.596Z,19.60
2019-04-30T16:56:28.635Z,19.70
2019-04-30T16:59:00.588Z,19.40
2019-04-30T17:01:29.010Z,19.20
2019-04-30T17:04:04.889Z,19.00
2019-04-30T17:06:40.729Z,18.90
2019-04-30T17:09:13.432Z,18.80
2019-04-30T17:11:43.332Z,18.60
2019-04-30T17:14:13.519Z,18.40
2019-04-30T17:16:41.810Z,18.30
2019-04-30T17:19:10.105Z,18.20
2019-04-30T17:21:38.373Z,18.20
2019-04-30T17:24:08.669Z,18.10
2019-04-30T17:26:36.712Z,18.00
2019-04-30T17:29:05.055Z,17.80
2019-04-30T17:31:33.342Z,17.40
2019-04-30T17:34:01.695Z,17.40
2019-04-30T17:36:29.982Z,17.30
2019-04-30T17:38:58.265Z,17.30
2019-04-30T17:41:26.617Z,17.30
2019-04-30T17:43:54.914Z,17.10
2019-04-30T17:46:23.260Z,17.10
2019-04-30T17:48:51.626Z,17.00
2019-04-30T17:51:22.720Z,16.90
2019-04-30T17:54:09.742Z,16.70
2019-04-30T17:56:38.127Z,16.70
2019-04-30T17:59:06.417Z,16.40
2019-04-30T18:01:34.904Z,16.30
2019-04-30T18:04:03.240Z,16.20
2019-04-30T18:06:31.550Z,16.10
2019-04-30T18:08:59.879Z,16.00
2019-04-30T18:11:29.575Z,16.00
2019-04-30T18:13:59.005Z,16.00
2019-04-30T18:16:28.659Z,16.00
2019-04-30T18:19:01.399Z,16.00
2019-04-30T18:21:31.329Z,15.90
2019-04-30T18:24:04.253Z,15.80
2019-04-30T18:26:33.298Z,15.80
2019-04-30T18:29:01.621Z,15.70
2019-04-30T18:31:29.983Z,15.60
2019-04-30T18:33:59.319Z,15.60
2019-04-30T18:36:29.335Z,15.60
2019-04-30T18:38:59.029Z,15.50
2019-04-30T18:41:27.386Z,15.40
2019-04-30T18:43:55.653Z,15.40
2019-04-30T18:46:24.062Z,15.30
2019-04-30T18:48:52.838Z,15.20
2019-04-30T18:51:33.765Z,15.20
2019-04-30T18:53:51.177Z,15.10
2019-04-30T18:56:19.460Z,15.10
2019-04-30T18:58:48.669Z,15.00
2019-04-30T19:01:17.099Z,14.90
2019-04-30T19:03:45.404Z,14.80
2019-04-30T19:06:22.903Z,14.70
2019-04-30T19:08:47.001Z,14.60
2019-04-30T19:11:25.340Z,14.50
2019-04-30T19:14:03.771Z,14.40
2019-04-30T19:16:49.531Z,14.30
2019-04-30T19:19:19.647Z,14.30
2019-04-30T19:21:48.642Z,14.10
2019-04-30T19:24:17.043Z,14.10
2019-04-30T19:26:45.323Z,14.10
2019-04-30T19:29:13.602Z,14.00
2019-04-30T19:31:41.889Z,13.90
2019-04-30T19:34:10.185Z,13.80
2019-04-30T19:36:40.542Z,13.70
2019-04-30T19:39:09.794Z,13.60
2019-04-30T19:41:38.746Z,13.40
2019-04-30T19:44:07.475Z,13.30
2019-04-30T19:46:36.181Z,13.20
2019-04-30T19:49:04.781Z,13.10
2019-04-30T19:51:33.352Z,13.00
2019-04-30T19:54:01.973Z,12.80
2019-04-30T19:56:32.830Z,12.70
2019-04-30T19:59:05.247Z,12.60
2019-04-30T20:01:31.085Z,12.50
2019-04-30T20:03:59.757Z,12.30
2019-04-30T20:06:28.694Z,12.20
2019-04-30T20:08:58.771Z,12.10
2019-04-30T20:11:27.147Z,11.90
2019-04-30T20:13:56.322Z,11.80
2019-04-30T20:16:24.662Z,11.70
2019-04-30T20:18:53.009Z,11.60
2019-04-30T20:21:28.016Z,11.60
2019-04-30T20:23:52.972Z,11.50
2019-04-30T20:26:21.254Z,11.40
2019-04-30T20:28:49.528Z,11.30
2019-04-30T20:31:19.073Z,11.20
2019-04-30T20:33:48.952Z,11.10
2019-04-30T20:36:19.066Z,11.10
2019-04-30T20:38:55.089Z,11.00
2019-04-30T20:41:25.060Z,10.90
2019-04-30T20:43:53.320Z,10.80
2019-04-30T20:46:31.418Z,10.80
2019-04-30T20:48:51.624Z,10.70
2019-04-30T20:51:19.973Z,10.60
2019-04-30T20:53:49.149Z,10.50
2019-04-30T20:56:19.141Z,10.50
2019-04-30T20:58:57.191Z,10.50
2019-04-30T21:01:19.345Z,10.50
2019-04-30T21:03:47.828Z,10.50
2019-04-30T21:06:16.160Z,10.40
2019-04-30T21:08:44.476Z,10.40
2019-04-30T21:11:12.848Z,10.30
2019-04-30T21:13:41.144Z,10.30
2019-04-30T21:16:09.404Z,10.20
2019-04-30T21:18:39.125Z,10.20
2019-04-30T21:21:07.567Z,10.10
2019-04-30T21:23:35.929Z,10.00
2019-04-30T21:26:04.196Z,9.90
2019-04-30T21:28:32.483Z,9.90
2019-04-30T21:31:02.473Z,9.80
2019-04-30T21:33:32.411Z,9.80
2019-04-30T21:36:05.357Z,9.70
2019-04-30T21:38:33.717Z,9.70
2019-04-30T21:41:01.986Z,9.70
2019-04-30T21:43:30.282Z,9.60
2019-04-30T21:45:59.391Z,9.50
2019-04-30T21:48:28.752Z,9.40
2019-04-30T21:50:59.185Z,9.40
2019-04-30T21:53:27.168Z,9.40
2019-04-30T21:55:55.904Z,9.30
2019-04-30T21:58:24.221Z,9.20
2019-04-30T22:01:06.257Z,9.30
2019-04-30T22:03:34.668Z,9.20
2019-04-30T22:06:02.926Z,9.20
2019-04-30T22:08:31.310Z,9.10
2019-04-30T22:11:00.235Z,9.10
2019-04-30T22:13:29.519Z,9.10
2019-04-30T22:15:57.923Z,9.00
2019-04-30T22:18:26.202Z,8.90
2019-04-30T22:20:55.507Z,8.90
2019-04-30T22:23:23.771Z,8.90
2019-04-30T22:25:52.076Z,8.80
2019-04-30T22:28:20.319Z,8.80
2019-04-30T22:30:50.404Z,8.70
2019-04-30T22:33:19.405Z,8.70
2019-04-30T22:35:52.398Z,8.60
2019-04-30T22:38:29.101Z,8.60
2019-04-30T22:40:58.913Z,8.50
2019-04-30T22:43:27.263Z,8.50
2019-04-30T22:45:57.182Z,8.40
2019-04-30T22:48:25.471Z,8.40
2019-04-30T22:50:53.763Z,8.40
2019-04-30T22:53:22.022Z,8.30
2019-04-30T22:55:50.312Z,8.20
2019-04-30T22:58:18.616Z,8.20
2019-04-30T23:00:47.514Z,8.20
2019-04-30T23:03:19.977Z,8.10
2019-04-30T23:05:48.273Z,8.10
2019-04-30T23:08:16.544Z,8.00
2019-04-30T23:10:44.834Z,8.00
2019-04-30T23:13:13.103Z,7.90
2019-04-30T23:15:41.409Z,7.90
2019-04-30T23:18:09.657Z,7.90
2019-04-30T23:20:37.953Z,7.90
2019-04-30T23:23:06.205Z,7.80
2019-04-30T23:25:34.523Z,7.80
2019-04-30T23:28:02.832Z,7.80
2019-04-30T23:30:31.088Z,7.80
2019-04-30T23:32:59.383Z,7.80
2019-04-30T23:35:27.651Z,7.70
2019-04-30T23:37:56.009Z,7.60
2019-04-30T23:40:29.176Z,7.60
2019-04-30T23:42:57.612Z,7.60
2019-04-30T23:45:25.891Z,7.50
2019-04-30T23:47:54.179Z,7.50
2019-04-30T23:50:22.436Z,7.50
2019-04-30T23:52:50.703Z,7.50
2019-04-30T23:55:18.956Z,7.50
2019-04-30T23:57:47.238Z,7.50
